sensor_id;sensor_type;location;lat;lon;timestamp;P1;durP1;ratioP1;P2;durP2;ratioP2
4835;SDS011;2432;51.226;6.904;2022-11-15T00:00:48;19.90;;;7.97;;
4835;SDS011;2432;51.226;6.904;2022-11-15T00:03:16;16.03;;;6.80;;
4835;SDS011;2432;51.226;6.904;2022-11-15T00:05:43;16.60;;;8.03;;
4835;SDS011;2432;51.226;6.904;2022-11-15T00:08:10;16.77;;;7.70;;
4835;SDS011;2432;51.226;6.904;2022-11-15T00:10:37;16.00;;;7.40;;
4835;SDS011;2432;51.226;6.904;2022-11-15T00:13:04;18.03;;;7.27;;
4835;SDS011;2432;51.226;6.904;2022-11-15T00:15:35;18.37;;;8.10;;
4835;SDS011;2432;51.226;6.904;2022-11-15T00:18:03;16.43;;;7.10;;
4835;SDS011;2432;51.226;6.904;2022-11-15T00:20:31;17.80;;;7.00;;
4835;SDS011;2432;51.226;6.904;2022-11-15T00:23:00;15.87;;;6.50;;
4835;SDS011;2432;51.226;6.904;2022-11-15T00:25:26;16.63;;;7.40;;
4835;SDS011;2432;51.226;6.904;2022-11-15T00:27:56;18.57;;;7.50;;
4835;SDS011;2432;51.226;6.904;2022-11-15T00:30:24;15.90;;;6.30;;
4835;SDS011;2432;51.226;6.904;2022-11-15T00:32:50;15.33;;;6.60;;
4835;SDS011;2432;51.226;6.904;2022-11-15T00:35:17;14.80;;;7.10;;
4835;SDS011;2432;51.226;6.904;2022-11-15T00:37:44;14.80;;;6.57;;
4835;SDS011;2432;51.226;6.904;2022-11-15T00:40:11;15.27;;;6.80;;
4835;SDS011;2432;51.226;6.904;2022-11-15T00:42:39;18.27;;;7.07;;
4835;SDS011;2432;51.226;6.904;2022-11-15T00:45:05;16.07;;;6.53;;
4835;SDS011;2432;51.226;6.904;2022-11-15T00:47:32;15.93;;;6.80;;
4835;SDS011;2432;51.226;6.904;2022-11-15T00:49:59;14.83;;;6.90;;
4835;SDS011;2432;51.226;6.904;2022-11-15T00:52:25;22.23;;;8.00;;
4835;SDS011;2432;51.226;6.904;2022-11-15T00:54:52;14.93;;;7.17;;
4835;SDS011;2432;51.226;6.904;2022-11-15T00:57:18;18.83;;;7.40;;
4835;SDS011;2432;51.226;6.904;2022-11-15T00:59:44;16.90;;;7.40;;
4835;SDS011;2432;51.226;6.904;2022-11-15T01:02:11;17.17;;;7.20;;
4835;SDS011;2432;51.226;6.904;2022-11-15T01:04:37;15.53;;;7.83;;
4835;SDS011;2432;51.226;6.904;2022-11-15T01:07:04;13.00;;;6.10;;
4835;SDS011;2432;51.226;6.904;2022-11-15T01:09:30;17.63;;;7.20;;
4835;SDS011;2432;51.226;6.904;2022-11-15T01:11:57;15.73;;;7.10;;
4835;SDS011;2432;51.226;6.904;2022-11-15T01:14:23;15.03;;;7.00;;
4835;SDS011;2432;51.226;6.904;2022-11-15T01:16:50;22.03;;;7.37;;
4835;SDS011;2432;51.226;6.904;2022-11-15T01:19:17;16.13;;;7.27;;
4835;SDS011;2432;51.226;6.904;2022-11-15T01:21:43;15.97;;;7.30;;
4835;SDS011;2432;51.226;6.904;2022-11-15T01:24:11;14.50;;;6.43;;
4835;SDS011;2432;51.226;6.904;2022-11-15T01:26:38;14.90;;;7.10;;
4835;SDS011;2432;51.226;6.904;2022-11-15T01:29:05;16.40;;;7.07;;
4835;SDS011;2432;51.226;6.904;2022-11-15T01:31:31;16.97;;;7.27;;
4835;SDS011;2432;51.226;6.904;2022-11-15T01:33:58;14.80;;;7.13;;
4835;SDS011;2432;51.226;6.904;2022-11-15T01:36:24;15.57;;;7.13;;
4835;SDS011;2432;51.226;6.904;2022-11-15T01:38:54;16.07;;;6.77;;
4835;SDS011;2432;51.226;6.904;2022-11-15T01:41:23;16.40;;;7.30;;
4835;SDS011;2432;51.226;6.904;2022-11-15T01:43:52;16.47;;;6.40;;
4835;SDS011;2432;51.226;6.904;2022-11-15T01:46:28;21.13;;;7.60;;
4835;SDS011;2432;51.226;6.904;2022-11-15T01:48:55;17.70;;;7.20;;
4835;SDS011;2432;51.226;6.904;2022-11-15T01:51:26;14.73;;;6.93;;
4835;SDS011;2432;51.226;6.904;2022-11-15T01:53:56;16.57;;;7.30;;
4835;SDS011;2432;51.226;6.904;2022-11-15T01:56:27;16.00;;;6.80;;
4835;SDS011;2432;51.226;6.904;2022-11-15T01:58:58;16.00;;;6.53;;
4835;SDS011;2432;51.226;6.904;2022-11-15T02:01:30;13.93;;;6.57;;
4835;SDS011;2432;51.226;6.904;2022-11-15T02:03:59;17.03;;;7.10;;
4835;SDS011;2432;51.226;6.904;2022-11-15T02:06:29;16.30;;;6.27;;
4835;SDS011;2432;51.226;6.904;2022-11-15T02:08:56;14.87;;;6.83;;
4835;SDS011;2432;51.226;6.904;2022-11-15T02:11:24;22.23;;;7.57;;
4835;SDS011;2432;51.226;6.904;2022-11-15T02:13:50;22.63;;;6.77;;
4835;SDS011;2432;51.226;6.904;2022-11-15T02:24:46;15.60;;;7.40;;
4835;SDS011;2432;51.226;6.904;2022-11-15T02:33:02;18.27;;;7.23;;
4835;SDS011;2432;51.226;6.904;2022-11-15T02:35:46;18.47;;;7.53;;
4835;SDS011;2432;51.226;6.904;2022-11-15T02:38:17;18.30;;;7.10;;
4835;SDS011;2432;51.226;6.904;2022-11-15T02:43:39;23.33;;;7.40;;
4835;SDS011;2432;51.226;6.904;2022-11-15T02:46:26;18.43;;;7.97;;
4835;SDS011;2432;51.226;6.904;2022-11-15T02:49:18;15.80;;;7.33;;
4835;SDS011;2432;51.226;6.904;2022-11-15T02:51:45;17.80;;;7.30;;
4835;SDS011;2432;51.226;6.904;2022-11-15T02:54:17;21.20;;;7.93;;
4835;SDS011;2432;51.226;6.904;2022-11-15T02:56:49;16.07;;;7.53;;
4835;SDS011;2432;51.226;6.904;2022-11-15T03:04:53;18.60;;;7.40;;
4835;SDS011;2432;51.226;6.904;2022-11-15T03:10:00;16.43;;;7.10;;
4835;SDS011;2432;51.226;6.904;2022-11-15T03:12:36;15.63;;;7.00;;
4835;SDS011;2432;51.226;6.904;2022-11-15T03:15:16;18.90;;;7.30;;
4835;SDS011;2432;51.226;6.904;2022-11-15T03:17:52;16.80;;;6.83;;
4835;SDS011;2432;51.226;6.904;2022-11-15T03:20:33;19.23;;;7.13;;
4835;SDS011;2432;51.226;6.904;2022-11-15T03:23:08;19.13;;;6.90;;
4835;SDS011;2432;51.226;6.904;2022-11-15T03:25:36;15.63;;;7.00;;
4835;SDS011;2432;51.226;6.904;2022-11-15T03:28:13;19.77;;;7.10;;
4835;SDS011;2432;51.226;6.904;2022-11-15T03:30:50;17.13;;;6.73;;
4835;SDS011;2432;51.226;6.904;2022-11-15T03:33:19;14.57;;;6.37;;
4835;SDS011;2432;51.226;6.904;2022-11-15T03:35:48;15.30;;;6.50;;
4835;SDS011;2432;51.226;6.904;2022-11-15T03:38:17;19.67;;;6.67;;
4835;SDS011;2432;51.226;6.904;2022-11-15T03:40:51;16.83;;;7.30;;
4835;SDS011;2432;51.226;6.904;2022-11-15T03:46:15;15.40;;;6.43;;
4835;SDS011;2432;51.226;6.904;2022-11-15T03:48:51;14.13;;;6.70;;
4835;SDS011;2432;51.226;6.904;2022-11-15T03:51:21;15.80;;;7.20;;
4835;SDS011;2432;51.226;6.904;2022-11-15T03:53:48;19.03;;;7.83;;
4835;SDS011;2432;51.226;6.904;2022-11-15T03:56:15;15.10;;;6.17;;
4835;SDS011;2432;51.226;6.904;2022-11-15T03:58:41;16.17;;;6.30;;
4835;SDS011;2432;51.226;6.904;2022-11-15T04:01:08;14.40;;;6.60;;
4835;SDS011;2432;51.226;6.904;2022-11-15T04:03:34;14.37;;;5.50;;
4835;SDS011;2432;51.226;6.904;2022-11-15T04:06:01;16.83;;;6.50;;
4835;SDS011;2432;51.226;6.904;2022-11-15T04:08:27;14.40;;;6.03;;
4835;SDS011;2432;51.226;6.904;2022-11-15T04:10:54;13.00;;;5.80;;
4835;SDS011;2432;51.226;6.904;2022-11-15T04:13:20;17.13;;;6.57;;
4835;SDS011;2432;51.226;6.904;2022-11-15T04:15:47;14.80;;;5.80;;
4835;SDS011;2432;51.226;6.904;2022-11-15T04:18:13;13.27;;;5.53;;
4835;SDS011;2432;51.226;6.904;2022-11-15T04:20:41;13.50;;;6.00;;
4835;SDS011;2432;51.226;6.904;2022-11-15T04:23:26;15.03;;;5.90;;
4835;SDS011;2432;51.226;6.904;2022-11-15T04:26:11;15.37;;;6.50;;
4835;SDS011;2432;51.226;6.904;2022-11-15T04:28:42;13.33;;;5.63;;
4835;SDS011;2432;51.226;6.904;2022-11-15T04:31:47;14.23;;;5.90;;
4835;SDS011;2432;51.226;6.904;2022-11-15T04:34:13;14.33;;;6.13;;
4835;SDS011;2432;51.226;6.904;2022-11-15T04:36:39;13.17;;;5.70;;
4835;SDS011;2432;51.226;6.904;2022-11-15T04:39:24;13.73;;;6.03;;
4835;SDS011;2432;51.226;6.904;2022-11-15T04:41:51;12.47;;;5.40;;
4835;SDS011;2432;51.226;6.904;2022-11-15T04:44:17;12.90;;;5.77;;
4835;SDS011;2432;51.226;6.904;2022-11-15T04:46:44;12.97;;;5.60;;
4835;SDS011;2432;51.226;6.904;2022-11-15T04:49:10;13.47;;;6.40;;
4835;SDS011;2432;51.226;6.904;2022-11-15T04:51:37;12.60;;;5.67;;
4835;SDS011;2432;51.226;6.904;2022-11-15T04:54:03;16.80;;;6.47;;
4835;SDS011;2432;51.226;6.904;2022-11-15T04:56:30;14.20;;;6.00;;
4835;SDS011;2432;51.226;6.904;2022-11-15T04:58:56;14.13;;;6.73;;
4835;SDS011;2432;51.226;6.904;2022-11-15T05:01:22;14.20;;;6.20;;
4835;SDS011;2432;51.226;6.904;2022-11-15T05:03:49;14.27;;;7.07;;
4835;SDS011;2432;51.226;6.904;2022-11-15T05:06:34;14.93;;;6.50;;
4835;SDS011;2432;51.226;6.904;2022-11-15T05:09:00;13.57;;;6.80;;
4835;SDS011;2432;51.226;6.904;2022-11-15T05:11:27;15.60;;;6.60;;
4835;SDS011;2432;51.226;6.904;2022-11-15T05:13:53;17.93;;;6.80;;
4835;SDS011;2432;51.226;6.904;2022-11-15T05:16:20;13.43;;;5.90;;
4835;SDS011;2432;51.226;6.904;2022-11-15T05:18:48;16.20;;;6.87;;
4835;SDS011;2432;51.226;6.904;2022-11-15T05:21:17;15.40;;;7.63;;
4835;SDS011;2432;51.226;6.904;2022-11-15T05:23:43;18.00;;;7.73;;
4835;SDS011;2432;51.226;6.904;2022-11-15T05:26:10;16.93;;;8.17;;
4835;SDS011;2432;51.226;6.904;2022-11-15T05:28:37;15.13;;;7.20;;
4835;SDS011;2432;51.226;6.904;2022-11-15T05:31:10;20.10;;;8.40;;
4835;SDS011;2432;51.226;6.904;2022-11-15T05:33:38;14.23;;;7.50;;
4835;SDS011;2432;51.226;6.904;2022-11-15T05:36:25;14.87;;;6.60;;
4835;SDS011;2432;51.226;6.904;2022-11-15T05:38:57;13.10;;;6.27;;
4835;SDS011;2432;51.226;6.904;2022-11-15T05:41:35;13.73;;;6.47;;
4835;SDS011;2432;51.226;6.904;2022-11-15T05:44:05;13.97;;;6.90;;
4835;SDS011;2432;51.226;6.904;2022-11-15T05:46:34;15.60;;;6.67;;
4835;SDS011;2432;51.226;6.904;2022-11-15T05:49:04;15.43;;;7.50;;
4835;SDS011;2432;51.226;6.904;2022-11-15T05:51:35;13.00;;;6.87;;
4835;SDS011;2432;51.226;6.904;2022-11-15T05:54:02;15.00;;;6.70;;
4835;SDS011;2432;51.226;6.904;2022-11-15T05:56:28;16.53;;;6.83;;
4835;SDS011;2432;51.226;6.904;2022-11-15T05:58:56;12.90;;;5.80;;
4835;SDS011;2432;51.226;6.904;2022-11-15T06:01:25;15.73;;;6.60;;
4835;SDS011;2432;51.226;6.904;2022-11-15T06:03:52;17.83;;;6.70;;
4835;SDS011;2432;51.226;6.904;2022-11-15T06:06:19;15.03;;;6.50;;
4835;SDS011;2432;51.226;6.904;2022-11-15T06:08:45;16.03;;;6.13;;
4835;SDS011;2432;51.226;6.904;2022-11-15T06:11:13;18.60;;;6.90;;
4835;SDS011;2432;51.226;6.904;2022-11-15T06:13:40;22.40;;;6.80;;
4835;SDS011;2432;51.226;6.904;2022-11-15T06:16:06;13.07;;;5.57;;
4835;SDS011;2432;51.226;6.904;2022-11-15T06:18:33;14.67;;;6.93;;
4835;SDS011;2432;51.226;6.904;2022-11-15T06:21:00;13.30;;;6.40;;
4835;SDS011;2432;51.226;6.904;2022-11-15T06:23:27;13.37;;;5.50;;
4835;SDS011;2432;51.226;6.904;2022-11-15T06:25:57;11.40;;;4.80;;
4835;SDS011;2432;51.226;6.904;2022-11-15T06:28:28;12.30;;;5.30;;
4835;SDS011;2432;51.226;6.904;2022-11-15T06:30:55;12.17;;;5.60;;
4835;SDS011;2432;51.226;6.904;2022-11-15T06:33:22;14.40;;;5.17;;
4835;SDS011;2432;51.226;6.904;2022-11-15T06:35:48;12.07;;;5.10;;
4835;SDS011;2432;51.226;6.904;2022-11-15T06:38:15;12.97;;;5.40;;
4835;SDS011;2432;51.226;6.904;2022-11-15T06:40:41;12.30;;;4.90;;
4835;SDS011;2432;51.226;6.904;2022-11-15T06:43:08;10.83;;;4.80;;
4835;SDS011;2432;51.226;6.904;2022-11-15T06:45:34;11.13;;;4.40;;
4835;SDS011;2432;51.226;6.904;2022-11-15T06:48:01;10.77;;;4.40;;
4835;SDS011;2432;51.226;6.904;2022-11-15T06:50:28;10.73;;;4.90;;
4835;SDS011;2432;51.226;6.904;2022-11-15T06:52:54;12.80;;;4.73;;
4835;SDS011;2432;51.226;6.904;2022-11-15T06:55:21;11.00;;;4.53;;
4835;SDS011;2432;51.226;6.904;2022-11-15T06:57:51;12.40;;;5.27;;
4835;SDS011;2432;51.226;6.904;2022-11-15T07:00:19;16.00;;;6.07;;
4835;SDS011;2432;51.226;6.904;2022-11-15T07:02:46;13.70;;;5.93;;
4835;SDS011;2432;51.226;6.904;2022-11-15T07:05:13;12.97;;;5.57;;
4835;SDS011;2432;51.226;6.904;2022-11-15T07:07:42;11.57;;;4.77;;
4835;SDS011;2432;51.226;6.904;2022-11-15T07:10:08;12.00;;;4.83;;
4835;SDS011;2432;51.226;6.904;2022-11-15T07:12:35;12.23;;;4.67;;
4835;SDS011;2432;51.226;6.904;2022-11-15T07:15:01;12.30;;;4.97;;
4835;SDS011;2432;51.226;6.904;2022-11-15T07:17:28;12.43;;;5.13;;
4835;SDS011;2432;51.226;6.904;2022-11-15T07:19:54;11.57;;;4.43;;
4835;SDS011;2432;51.226;6.904;2022-11-15T07:22:21;11.47;;;4.10;;
4835;SDS011;2432;51.226;6.904;2022-11-15T07:24:47;11.43;;;4.33;;
4835;SDS011;2432;51.226;6.904;2022-11-15T07:27:14;9.87;;;3.77;;
4835;SDS011;2432;51.226;6.904;2022-11-15T07:29:41;10.00;;;3.50;;
4835;SDS011;2432;51.226;6.904;2022-11-15T07:32:07;11.13;;;3.90;;
4835;SDS011;2432;51.226;6.904;2022-11-15T07:34:35;9.90;;;3.37;;
4835;SDS011;2432;51.226;6.904;2022-11-15T07:37:01;11.57;;;4.20;;
4835;SDS011;2432;51.226;6.904;2022-11-15T07:39:27;14.67;;;3.80;;
4835;SDS011;2432;51.226;6.904;2022-11-15T07:41:54;13.87;;;3.97;;
4835;SDS011;2432;51.226;6.904;2022-11-15T07:44:40;11.37;;;3.60;;
4835;SDS011;2432;51.226;6.904;2022-11-15T07:47:07;10.33;;;3.73;;
4835;SDS011;2432;51.226;6.904;2022-11-15T07:49:33;14.10;;;3.87;;
4835;SDS011;2432;51.226;6.904;2022-11-15T07:52:00;12.70;;;4.13;;
4835;SDS011;2432;51.226;6.904;2022-11-15T07:54:26;16.77;;;4.40;;
4835;SDS011;2432;51.226;6.904;2022-11-15T07:56:53;12.87;;;3.80;;
4835;SDS011;2432;51.226;6.904;2022-11-15T07:59:19;10.70;;;3.90;;
4835;SDS011;2432;51.226;6.904;2022-11-15T08:01:46;12.43;;;3.63;;
4835;SDS011;2432;51.226;6.904;2022-11-15T08:04:12;10.63;;;4.00;;
4835;SDS011;2432;51.226;6.904;2022-11-15T08:09:21;11.63;;;4.20;;
4835;SDS011;2432;51.226;6.904;2022-11-15T08:11:48;11.93;;;3.63;;
4835;SDS011;2432;51.226;6.904;2022-11-15T08:14:14;15.40;;;4.13;;
4835;SDS011;2432;51.226;6.904;2022-11-15T08:16:40;15.43;;;3.40;;
4835;SDS011;2432;51.226;6.904;2022-11-15T08:19:07;10.33;;;3.80;;
4835;SDS011;2432;51.226;6.904;2022-11-15T08:21:33;11.47;;;3.20;;
4835;SDS011;2432;51.226;6.904;2022-11-15T08:24:01;9.73;;;3.20;;
4835;SDS011;2432;51.226;6.904;2022-11-15T08:26:27;10.97;;;3.37;;
4835;SDS011;2432;51.226;6.904;2022-11-15T08:28:56;9.33;;;3.03;;
4835;SDS011;2432;51.226;6.904;2022-11-15T08:31:22;10.03;;;3.43;;
4835;SDS011;2432;51.226;6.904;2022-11-15T08:33:48;11.57;;;3.83;;
4835;SDS011;2432;51.226;6.904;2022-11-15T08:36:16;11.07;;;3.67;;
4835;SDS011;2432;51.226;6.904;2022-11-15T08:38:43;10.70;;;3.40;;
4835;SDS011;2432;51.226;6.904;2022-11-15T08:41:11;11.93;;;3.70;;
4835;SDS011;2432;51.226;6.904;2022-11-15T08:43:42;11.83;;;3.47;;
4835;SDS011;2432;51.226;6.904;2022-11-15T08:46:11;10.17;;;3.40;;
4835;SDS011;2432;51.226;6.904;2022-11-15T08:48:39;10.70;;;3.50;;
4835;SDS011;2432;51.226;6.904;2022-11-15T08:51:05;9.77;;;3.20;;
4835;SDS011;2432;51.226;6.904;2022-11-15T08:53:33;12.80;;;3.90;;
4835;SDS011;2432;51.226;6.904;2022-11-15T08:56:00;13.43;;;4.13;;
4835;SDS011;2432;51.226;6.904;2022-11-15T08:58:27;15.13;;;4.60;;
4835;SDS011;2432;51.226;6.904;2022-11-15T09:00:54;11.13;;;3.57;;
4835;SDS011;2432;51.226;6.904;2022-11-15T09:03:21;13.27;;;4.10;;
4835;SDS011;2432;51.226;6.904;2022-11-15T09:05:47;10.97;;;3.63;;
4835;SDS011;2432;51.226;6.904;2022-11-15T09:08:14;11.10;;;4.17;;
4835;SDS011;2432;51.226;6.904;2022-11-15T09:11:04;12.23;;;3.30;;
4835;SDS011;2432;51.226;6.904;2022-11-15T09:13:34;12.77;;;4.10;;
4835;SDS011;2432;51.226;6.904;2022-11-15T09:16:03;9.93;;;3.80;;
4835;SDS011;2432;51.226;6.904;2022-11-15T09:18:30;14.93;;;3.73;;
4835;SDS011;2432;51.226;6.904;2022-11-15T09:20:57;11.43;;;3.70;;
4835;SDS011;2432;51.226;6.904;2022-11-15T09:23:25;10.10;;;3.77;;
4835;SDS011;2432;51.226;6.904;2022-11-15T09:25:52;13.60;;;4.90;;
4835;SDS011;2432;51.226;6.904;2022-11-15T09:28:19;12.47;;;3.53;;
4835;SDS011;2432;51.226;6.904;2022-11-15T09:30:45;14.50;;;3.70;;
4835;SDS011;2432;51.226;6.904;2022-11-15T09:33:12;12.90;;;3.60;;
4835;SDS011;2432;51.226;6.904;2022-11-15T09:35:39;10.97;;;3.03;;
4835;SDS011;2432;51.226;6.904;2022-11-15T09:38:07;14.20;;;3.37;;
4835;SDS011;2432;51.226;6.904;2022-11-15T09:40:35;11.20;;;3.00;;
4835;SDS011;2432;51.226;6.904;2022-11-15T09:49:13;11.00;;;2.90;;
4835;SDS011;2432;51.226;6.904;2022-11-15T09:51:43;12.00;;;3.10;;
4835;SDS011;2432;51.226;6.904;2022-11-15T10:00:06;9.50;;;2.50;;
4835;SDS011;2432;51.226;6.904;2022-11-15T10:03:00;9.87;;;2.77;;
4835;SDS011;2432;51.226;6.904;2022-11-15T10:05:39;16.83;;;3.03;;
4835;SDS011;2432;51.226;6.904;2022-11-15T10:08:52;9.07;;;2.00;;
4835;SDS011;2432;51.226;6.904;2022-11-15T10:11:11;8.93;;;2.10;;
4835;SDS011;2432;51.226;6.904;2022-11-15T10:14:02;11.30;;;1.80;;
4835;SDS011;2432;51.226;6.904;2022-11-15T10:24:50;10.40;;;2.00;;
4835;SDS011;2432;51.226;6.904;2022-11-15T10:27:27;9.57;;;1.90;;
4835;SDS011;2432;51.226;6.904;2022-11-15T10:29:55;9.70;;;1.90;;
4835;SDS011;2432;51.226;6.904;2022-11-15T10:32:21;11.53;;;2.20;;
4835;SDS011;2432;51.226;6.904;2022-11-15T10:34:48;10.00;;;1.73;;
4835;SDS011;2432;51.226;6.904;2022-11-15T10:37:26;11.83;;;2.30;;
4835;SDS011;2432;51.226;6.904;2022-11-15T10:43:04;9.57;;;1.60;;
4835;SDS011;2432;51.226;6.904;2022-11-15T10:45:33;12.87;;;2.03;;
4835;SDS011;2432;51.226;6.904;2022-11-15T10:50:48;9.07;;;2.03;;
4835;SDS011;2432;51.226;6.904;2022-11-15T10:55:47;10.57;;;1.83;;
4835;SDS011;2432;51.226;6.904;2022-11-15T11:00:50;10.10;;;1.90;;
4835;SDS011;2432;51.226;6.904;2022-11-15T11:03:27;10.47;;;1.90;;
4835;SDS011;2432;51.226;6.904;2022-11-15T11:06:18;10.40;;;2.00;;
4835;SDS011;2432;51.226;6.904;2022-11-15T11:08:55;10.33;;;2.00;;
4835;SDS011;2432;51.226;6.904;2022-11-15T11:11:23;10.23;;;2.10;;
4835;SDS011;2432;51.226;6.904;2022-11-15T11:13:50;10.03;;;1.67;;
4835;SDS011;2432;51.226;6.904;2022-11-15T11:16:34;9.10;;;1.73;;
4835;SDS011;2432;51.226;6.904;2022-11-15T11:19:30;9.90;;;1.70;;
4835;SDS011;2432;51.226;6.904;2022-11-15T11:22:05;12.43;;;2.10;;
4835;SDS011;2432;51.226;6.904;2022-11-15T11:33:16;10.60;;;2.00;;
4835;SDS011;2432;51.226;6.904;2022-11-15T11:38:42;8.60;;;1.57;;
4835;SDS011;2432;51.226;6.904;2022-11-15T11:44:17;9.60;;;1.70;;
4835;SDS011;2432;51.226;6.904;2022-11-15T11:52:28;8.37;;;1.50;;
4835;SDS011;2432;51.226;6.904;2022-11-15T11:55:14;8.90;;;1.60;;
4835;SDS011;2432;51.226;6.904;2022-11-15T12:00:39;8.70;;;1.60;;
4835;SDS011;2432;51.226;6.904;2022-11-15T12:03:14;9.77;;;1.63;;
4835;SDS011;2432;51.226;6.904;2022-11-15T12:05:45;11.73;;;1.80;;
4835;SDS011;2432;51.226;6.904;2022-11-15T12:11:19;11.73;;;1.63;;
4835;SDS011;2432;51.226;6.904;2022-11-15T12:13:50;8.27;;;1.33;;
4835;SDS011;2432;51.226;6.904;2022-11-15T12:16:26;10.27;;;1.60;;
4835;SDS011;2432;51.226;6.904;2022-11-15T12:18:55;8.30;;;1.40;;
4835;SDS011;2432;51.226;6.904;2022-11-15T12:24:02;9.30;;;1.60;;
4835;SDS011;2432;51.226;6.904;2022-11-15T12:26:42;12.90;;;1.70;;
4835;SDS011;2432;51.226;6.904;2022-11-15T12:29:16;9.77;;;2.10;;
4835;SDS011;2432;51.226;6.904;2022-11-15T12:31:50;8.40;;;1.60;;
4835;SDS011;2432;51.226;6.904;2022-11-15T12:36:49;12.57;;;1.50;;
4835;SDS011;2432;51.226;6.904;2022-11-15T12:39:17;8.67;;;1.47;;
4835;SDS011;2432;51.226;6.904;2022-11-15T13:02:18;14.77;;;1.90;;
4835;SDS011;2432;51.226;6.904;2022-11-15T13:04:47;11.10;;;1.30;;
4835;SDS011;2432;51.226;6.904;2022-11-15T13:10:01;8.97;;;1.57;;
4835;SDS011;2432;51.226;6.904;2022-11-15T13:20:55;10.93;;;1.60;;
4835;SDS011;2432;51.226;6.904;2022-11-15T13:23:27;9.33;;;1.60;;
4835;SDS011;2432;51.226;6.904;2022-11-15T13:26:11;10.10;;;1.40;;
4835;SDS011;2432;51.226;6.904;2022-11-15T13:28:47;9.90;;;1.40;;
4835;SDS011;2432;51.226;6.904;2022-11-15T13:39:46;12.93;;;3.57;;
4835;SDS011;2432;51.226;6.904;2022-11-15T13:42:14;9.90;;;1.80;;
4835;SDS011;2432;51.226;6.904;2022-11-15T13:44:56;8.83;;;1.70;;
4835;SDS011;2432;51.226;6.904;2022-11-15T13:47:28;9.20;;;1.90;;
4835;SDS011;2432;51.226;6.904;2022-11-15T13:49:58;11.57;;;2.40;;
4835;SDS011;2432;51.226;6.904;2022-11-15T13:52:30;12.23;;;3.03;;
4835;SDS011;2432;51.226;6.904;2022-11-15T13:55:01;9.33;;;1.60;;
4835;SDS011;2432;51.226;6.904;2022-11-15T14:00:34;9.60;;;1.90;;
4835;SDS011;2432;51.226;6.904;2022-11-15T14:06:13;10.53;;;2.40;;
4835;SDS011;2432;51.226;6.904;2022-11-15T14:08:42;9.43;;;1.63;;
4835;SDS011;2432;51.226;6.904;2022-11-15T14:11:25;16.20;;;4.27;;
4835;SDS011;2432;51.226;6.904;2022-11-15T14:14:26;13.80;;;4.50;;
4835;SDS011;2432;51.226;6.904;2022-11-15T14:16:50;8.03;;;1.50;;
4835;SDS011;2432;51.226;6.904;2022-11-15T14:24:42;11.60;;;2.30;;
4835;SDS011;2432;51.226;6.904;2022-11-15T14:29:56;9.13;;;2.40;;
4835;SDS011;2432;51.226;6.904;2022-11-15T14:32:24;11.20;;;2.60;;
4835;SDS011;2432;51.226;6.904;2022-11-15T14:34:56;9.10;;;2.13;;
4835;SDS011;2432;51.226;6.904;2022-11-15T14:39:52;8.10;;;1.93;;
4835;SDS011;2432;51.226;6.904;2022-11-15T14:42:20;13.70;;;2.90;;
4835;SDS011;2432;51.226;6.904;2022-11-15T14:44:47;10.63;;;2.63;;
4835;SDS011;2432;51.226;6.904;2022-11-15T14:47:14;13.33;;;3.80;;
4835;SDS011;2432;51.226;6.904;2022-11-15T14:49:41;10.60;;;3.07;;
4835;SDS011;2432;51.226;6.904;2022-11-15T14:54:58;11.70;;;2.73;;
4835;SDS011;2432;51.226;6.904;2022-11-15T14:57:25;14.53;;;5.43;;
4835;SDS011;2432;51.226;6.904;2022-11-15T14:59:52;12.50;;;3.70;;
4835;SDS011;2432;51.226;6.904;2022-11-15T15:02:19;11.30;;;2.30;;
4835;SDS011;2432;51.226;6.904;2022-11-15T15:04:48;11.97;;;3.60;;
4835;SDS011;2432;51.226;6.904;2022-11-15T15:07:15;14.60;;;2.97;;
4835;SDS011;2432;51.226;6.904;2022-11-15T15:09:42;11.53;;;2.60;;
4835;SDS011;2432;51.226;6.904;2022-11-15T15:12:14;10.50;;;2.60;;
4835;SDS011;2432;51.226;6.904;2022-11-15T15:14:43;9.73;;;2.70;;
4835;SDS011;2432;51.226;6.904;2022-11-15T15:17:10;11.07;;;3.00;;
4835;SDS011;2432;51.226;6.904;2022-11-15T15:19:36;9.80;;;2.80;;
4835;SDS011;2432;51.226;6.904;2022-11-15T15:22:03;10.80;;;3.30;;
4835;SDS011;2432;51.226;6.904;2022-11-15T15:24:30;13.93;;;2.80;;
4835;SDS011;2432;51.226;6.904;2022-11-15T15:26:56;11.80;;;2.87;;
4835;SDS011;2432;51.226;6.904;2022-11-15T15:29:23;11.83;;;3.10;;
4835;SDS011;2432;51.226;6.904;2022-11-15T15:31:49;12.90;;;2.60;;
4835;SDS011;2432;51.226;6.904;2022-11-15T15:34:16;10.00;;;2.50;;
4835;SDS011;2432;51.226;6.904;2022-11-15T15:36:42;12.07;;;3.23;;
4835;SDS011;2432;51.226;6.904;2022-11-15T15:39:09;10.87;;;2.70;;
4835;SDS011;2432;51.226;6.904;2022-11-15T15:41:37;10.83;;;2.30;;
4835;SDS011;2432;51.226;6.904;2022-11-15T15:44:03;10.70;;;2.43;;
4835;SDS011;2432;51.226;6.904;2022-11-15T15:46:30;14.83;;;2.53;;
4835;SDS011;2432;51.226;6.904;2022-11-15T15:48:56;10.27;;;2.43;;
4835;SDS011;2432;51.226;6.904;2022-11-15T15:51:23;12.63;;;2.53;;
4835;SDS011;2432;51.226;6.904;2022-11-15T15:53:49;11.67;;;2.43;;
4835;SDS011;2432;51.226;6.904;2022-11-15T15:56:17;11.27;;;2.37;;
4835;SDS011;2432;51.226;6.904;2022-11-15T15:58:44;10.23;;;2.67;;
4835;SDS011;2432;51.226;6.904;2022-11-15T16:01:10;9.47;;;2.27;;
4835;SDS011;2432;51.226;6.904;2022-11-15T16:03:37;9.60;;;2.20;;
4835;SDS011;2432;51.226;6.904;2022-11-15T16:06:03;9.60;;;2.50;;
4835;SDS011;2432;51.226;6.904;2022-11-15T16:08:31;10.63;;;2.70;;
4835;SDS011;2432;51.226;6.904;2022-11-15T16:11:17;11.17;;;3.20;;
4835;SDS011;2432;51.226;6.904;2022-11-15T16:13:44;11.40;;;3.10;;
4835;SDS011;2432;51.226;6.904;2022-11-15T16:16:12;8.50;;;2.27;;
4835;SDS011;2432;51.226;6.904;2022-11-15T16:18:39;10.60;;;2.40;;
4835;SDS011;2432;51.226;6.904;2022-11-15T16:21:07;12.00;;;2.73;;
4835;SDS011;2432;51.226;6.904;2022-11-15T16:23:34;11.30;;;3.30;;
4835;SDS011;2432;51.226;6.904;2022-11-15T16:26:00;12.83;;;4.37;;
4835;SDS011;2432;51.226;6.904;2022-11-15T16:28:29;14.37;;;3.27;;
4835;SDS011;2432;51.226;6.904;2022-11-15T16:30:59;11.47;;;2.80;;
4835;SDS011;2432;51.226;6.904;2022-11-15T16:33:36;10.20;;;3.30;;
4835;SDS011;2432;51.226;6.904;2022-11-15T16:36:03;10.23;;;3.00;;
4835;SDS011;2432;51.226;6.904;2022-11-15T16:38:32;9.90;;;2.60;;
4835;SDS011;2432;51.226;6.904;2022-11-15T16:40:59;10.80;;;2.60;;
4835;SDS011;2432;51.226;6.904;2022-11-15T16:43:26;9.83;;;2.70;;
4835;SDS011;2432;51.226;6.904;2022-11-15T16:45:52;10.90;;;2.67;;
4835;SDS011;2432;51.226;6.904;2022-11-15T16:48:26;11.70;;;2.50;;
4835;SDS011;2432;51.226;6.904;2022-11-15T16:50:54;9.70;;;2.50;;
4835;SDS011;2432;51.226;6.904;2022-11-15T16:53:22;10.50;;;2.93;;
4835;SDS011;2432;51.226;6.904;2022-11-15T16:55:49;12.13;;;3.10;;
4835;SDS011;2432;51.226;6.904;2022-11-15T16:58:16;10.83;;;2.87;;
4835;SDS011;2432;51.226;6.904;2022-11-15T17:00:42;12.10;;;3.40;;
4835;SDS011;2432;51.226;6.904;2022-11-15T17:03:09;9.17;;;2.70;;
4835;SDS011;2432;51.226;6.904;2022-11-15T17:05:35;13.50;;;3.20;;
4835;SDS011;2432;51.226;6.904;2022-11-15T17:08:02;10.33;;;2.10;;
4835;SDS011;2432;51.226;6.904;2022-11-15T17:10:29;10.90;;;3.27;;
4835;SDS011;2432;51.226;6.904;2022-11-15T17:12:55;14.30;;;3.27;;
4835;SDS011;2432;51.226;6.904;2022-11-15T17:15:21;11.30;;;2.90;;
4835;SDS011;2432;51.226;6.904;2022-11-15T17:17:50;11.40;;;3.00;;
4835;SDS011;2432;51.226;6.904;2022-11-15T17:20:18;11.50;;;2.90;;
4835;SDS011;2432;51.226;6.904;2022-11-15T17:22:47;11.53;;;2.93;;
4835;SDS011;2432;51.226;6.904;2022-11-15T17:25:13;14.20;;;3.17;;
4835;SDS011;2432;51.226;6.904;2022-11-15T17:27:40;11.97;;;2.53;;
4835;SDS011;2432;51.226;6.904;2022-11-15T17:30:08;18.20;;;4.70;;
4835;SDS011;2432;51.226;6.904;2022-11-15T17:32:37;14.07;;;3.83;;
4835;SDS011;2432;51.226;6.904;2022-11-15T17:35:04;10.70;;;2.83;;
4835;SDS011;2432;51.226;6.904;2022-11-15T17:37:40;10.80;;;2.90;;
4835;SDS011;2432;51.226;6.904;2022-11-15T17:40:07;11.47;;;3.23;;
4835;SDS011;2432;51.226;6.904;2022-11-15T17:42:34;10.33;;;2.23;;
4835;SDS011;2432;51.226;6.904;2022-11-15T17:45:01;13.40;;;3.17;;
4835;SDS011;2432;51.226;6.904;2022-11-15T17:47:34;10.67;;;2.63;;
4835;SDS011;2432;51.226;6.904;2022-11-15T17:50:01;10.00;;;2.80;;